Athens, VT

4:07 AM EST on December 07, 2019 (GMT -0500)
Athens Vermont | | Change Station
Active Advisory: Special Statement Active Notice: Public Information Statement

Elev 1079 ft 43.13 °N, 72.60 °W | Updated 22 seconds ago

Partly Cloudy
Partly Cloudy
18.3 °F
Feels Like 18 °F
N
0
Wind Variable Wind from North
Gusts 0.0 mph

Today
High -- | Low -- °F
--% Chance of Precip.
Yesterday
High -- | Low -- °F
Precip. -- in
Pressure 30.22 in
Visibility 10.0 miles
Clouds Clear
Windchill 18 °F
Dew Point 18 °F
Humidity 99%
Rainfall 0.00 in
Snow Depth Not available.
7:08 AM 4:15 PM
Waxing Gibbous, 78% visible
METAR KVSF 070854Z AUTO 00000KT 10SM CLR M10/M12 A3018 RMK AO2 SLP231 I1000 I3000 T11001117 51022
Pressure 30.22 in
Visibility 10.0 miles
Clouds Clear
Windchill 18 °F
Dew Point 18 °F
Humidity 99%
Rainfall 0.00 in
Snow Depth Not available.
7:08 AM 4:15 PM
Waxing Gibbous, 78% visible
METAR KVSF 070854Z AUTO 00000KT 10SM CLR M10/M12 A3018 RMK AO2 SLP231 I1000 I3000 T11001117 51022

Get Your Daily Forecast Email!

Thanks for signing up!

Be on the lookout for a verification email in your inbox.

You'll start receiving severe weather alerts in your inbox..

×

10-Day Weather Forecast

Almanac

Astronomy

Dec. 07, 2019 Rise Set
Actual Time
Civil Twilight
Nautical Twilight
Astronomical Twilight
Moon
Length of Visible Light
Length of Day
Tomorrow will be .
, % of the Moon is Illuminated

Today's Extremes

State Highs State Lows

Community

WunderPhotos

Category 6

Welcome to Category 6. This is the collective home for Weather Underground's featured writeups by Dr. Jeff Masters (right), Bob Henson (left), Chris Burt, and other regular contributors.

Nearby

Air Quality

  Air Quality AQ Index Pollutant
Not available.

Snow Depth

Station Depth Elevation

Earthquake Activity

City Distance Mag. Time & Date
Minimum magnitude displayed is 2.5.

Coastal Water Temperatures

Place Temperature

Stations

Nearby Weather Stations

Station Location Temp. Windchill Dew Point Humidity Wind Precip. Elev Updated Type
                   

Watches & Warnings

Special Statement
Issued: 10:13 PM EST Dec. 6, 2019 – National Weather Service

... Slippery conditions due to black ice...

As temperatures drop tonight wet pavement and slushy snow will
freeze and become slick if left untreated. Secondary roads, side
streets and sidewalks are most vulnerable to the development of
black ice. Be careful traveling through the overnight hours.
Roads that appear wet may actually be icy.



1013 PM EST Fri Dec 6 2019

... Slippery conditions due to black ice...

As temperatures drop tonight wet pavement and slushy snow will
freeze and become slick if left untreated. Secondary roads, side
streets and sidewalks are most vulnerable to the development of
black ice. Be careful traveling through the overnight hours.
Roads that appear wet may actually be icy.